Kure Beach, NC (28449)

1:33 PM EDT on October 02, 2014 (GMT -0400)
Darlings By The Sea | Change Station
CLOSE
Current Station
Personal Weather Station
Location: Kure Beach, NC
Elevation: 16 ft
Nearby Weather Stations

Elev 16 ft 34.00 °N, 77.90 °W | Updated 2 seconds ago

Mostly Cloudy
Mostly Cloudy
76.9 °F
Feels Like 78 °F
N
6.9
Wind Variable Wind from SSE
Gusts 8.0 mph

Today
High -- | Low -- °F
--% Chance of Precip.
Yesterday
High -- | Low -- °F
Precip. -- in
7:06 AM 6:54 PM
First Quarter, 60% visible
Pressure 30.09 in
Visibility 10.0 miles
Clouds Scattered Clouds 3000 ft
Scattered Clouds 3900 ft
Scattered Clouds 4900 ft
Heat Index 78 °F
Dew Point 70 °F
Humidity 79%
Rainfall 0.01 in
Snow Depth Not available.
UV 7 out of 12
Pollen 5.10 out of 12
Air Quality Not available.
Flu Activity Not available.
METAR KSUT 021715Z AUTO 18007KT 10SM SCT030 SCT039 SCT049 26/19 A3009 RMK AO2 T02570189

More Conditions Fewer Conditions

Pressure 30.09 in
Visibility 10.0 miles
Clouds Scattered Clouds 3000 ft
Scattered Clouds 3900 ft
Scattered Clouds 4900 ft
Heat Index 78 °F
Dew Point 70 °F
Humidity 79%
Rainfall 0.01 in
Snow Depth Not available.
UV 7 out of 12
Pollen 5.10 out of 12
Air Quality Not available.
Flu Activity Not available.
METAR KSUT 021715Z AUTO 18007KT 10SM SCT030 SCT039 SCT049 26/19 A3009 RMK AO2 T02570189

More Conditions Fewer Conditions

10-Day Weather Forecast

Almanac

Astronomy

Oct. 02, 2014 Rise Set
Actual Time 7:06 AM EDT 6:54 PM EDT
Civil Twilight 6:41 AM EDT 7:19 PM EDT
Nautical Twilight 6:12 AM EDT 7:48 PM EDT
Astronomical Twilight 5:43 AM EDT 8:17 PM EDT
Moon 2:45 PM EDT 12:36 AM EDT
Length of Visible Light 12h 37m
Length of Day
11h 47m
Tomorrow will be 2m 6s shorter.
First Quarter, 60% of the Moon is Illuminated
Today
First Quarter
Oct 8
Full
Oct 15
Last Quarter
Oct 23
New
Oct 30
First Quarter

Today's Extremes

State Highs State Lows

Community

WunderPhotos

Upload Photos

1,758,305 photos uploaded!

Nearby

Snow Depth

Station Depth Elevation
No new snow has been reported.

Earthquake Activity

City Distance Mag. Time & Date
No recent earthquake activity has been reported nearby.
Minimum magnitude displayed is 2.5.

Coastal Water Temperatures

Place Temperature
Johnny Mercer Pier, Wrightsville Beach, NC 79.0 °F
Beaufort, NC 75.0 °F
Springmaid Pier, SC 75.9 °F

Nearby Weather Stations